Aérodrome :
LOGIN :

S'inscrire | Disclaimer

   EN    FR    IT 

 










Légende :    VFR   VFR Marginal   IFR   IFR Intensif   IFR Très Intensif
Visi : 
Plafond : 
>= 8 km
>= 3000ft
5 à 8 km
1000 à 3000 ft
1500m à 5 km
500 à 1000 ft
800 à 1500m
200 à 500 ft
< 800m
< 200 ft
Symboles :   Orages  Brouillard  Fortes neiges  Fortes précipitations  Vent > 20 kt
SIGMETs :   Divers  Orages  Givrage  Turbulence  Onde Orograph.  Cendres Volcan.






- Altitude de l'aérodrome : 659 ft
- Code IATA : LGG


EBLG - Liège

DERNIER METAR :
  • 282150Z 22007KT 170V240 8000 SCT023 07/06 Q1014 TEMPO 4000 BR

METARs EXPIRÉS :
  • 282120Z 21006KT 9999 SCT023 07/06 Q1013 NOSIG
  • 282050Z 21005KT 9999 FEW013 SCT016 07/06 Q1013 NOSIG
  • 282020Z 20004KT 9999 FEW013 BKN016 07/06 Q1013 NOSIG
  • 281950Z 16004KT 9999 BKN025 08/06 Q1013 NOSIG
  • 281920Z 16004KT 130V210 9999 BKN025 08/06 Q1013 NOSIG

TAF TAF EBLG
Valide du 28 à 18h jusqu'au 30 à 00h UTC


281720Z 2818/2924 22005KT 8000 SCT010 BKN020
BECMG 2821/2823 4500 BR
BECMG 2823/2901 2500
PROB40 2901/2911 0300 FG BKN001
BECMG 2912/2914 7000 NSW BKN008
TEMPO 2914/2916 SCT008 BKN012
BECMG 2922/2924 3500 BR



MET'MAP, la Météo Aéronautique d'un coup d'oeil ! - Copyright ORBIFLY Décembre 2007 - Disclaimer

ORBIFLY MET'MAP TEAM :

Programmation & Développement : Alexandra Zaïnal
Sur une idée originale de : Baudouin d'Aumeries
Soutien technique & logistique : Manuel Goepfert
Assistance : Marc-Olivier Méhu




SOURCES & CREDITS :

   NOAA